Time;durP1;ratioP1;P1;durP2;ratioP2;P2;SDS_P1;SDS_P2;PMS_P1;PMS_P2;Temp;Humidity;BMP_temperature;BMP_pressure;BME280_temperature;BME280_humidity;BME280_pressure;Samples;Min_cycle;Max_cycle;Signal;HPM_P1;HPM_P2
2024/01/30 00:01:31;;;;;;;58.70;24.40;;;;;;;-0.42;77.07;102138.50;105540;1256;81457;-58
2024/01/30 00:04:00;;;;;;;48.60;22.50;;;;;;;-0.40;77.07;102136.52;105488;1254;71757;-58
2024/01/30 00:06:28;;;;;;;58.30;24.60;;;;;;;-0.42;76.99;102144.34;105497;1254;69099;-58
2024/01/30 00:08:56;;;;;;;57.90;25.40;;;;;;;-0.47;76.87;102148.64;105564;1254;69179;-58
2024/01/30 00:11:28;;;;;;;67.30;27.60;;;;;;;-0.52;76.94;102145.72;105566;1254;72360;-58
2024/01/30 00:13:56;;;;;;;42.40;19.40;;;;;;;-0.55;76.85;102142.85;105592;1256;81897;-58
2024/01/30 00:16:25;;;;;;;35.10;17.70;;;;;;;-0.54;77.40;102145.63;105472;1254;71845;-58
2024/01/30 00:18:53;;;;;;;27.80;13.60;;;;;;;-0.53;77.50;102142.08;105585;1254;69102;-58
2024/01/30 00:21:22;;;;;;;31.20;16.30;;;;;;;-0.46;77.94;102135.45;105499;1254;69186;-58
2024/01/30 00:23:50;;;;;;;36.70;17.30;;;;;;;-0.36;77.85;102135.46;105521;1254;72028;-58
2024/01/30 00:26:18;;;;;;;34.50;17.60;;;;;;;-0.40;77.35;102141.85;105545;1256;81709;-58
2024/01/30 00:28:46;;;;;;;37.40;17.70;;;;;;;-0.48;77.56;102141.06;105525;1253;73077;-58
2024/01/30 00:31:15;;;;;;;39.70;18.30;;;;;;;-0.48;77.55;102143.83;105459;1252;69173;-58
2024/01/30 00:33:43;;;;;;;41.50;19.40;;;;;;;-0.47;77.74;102140.09;105590;1255;69151;-59
2024/01/30 00:36:11;;;;;;;37.30;19.40;;;;;;;-0.52;77.46;102140.56;105544;1254;72546;-58
2024/01/30 00:38:40;;;;;;;43.40;20.00;;;;;;;-0.62;77.29;102139.84;105515;1253;82171;-58
2024/01/30 00:41:09;;;;;;;40.50;19.10;;;;;;;-0.74;77.24;102138.73;105560;1253;71694;-58
2024/01/30 00:43:37;;;;;;;36.90;19.10;;;;;;;-0.76;77.73;102140.21;105488;1257;69244;-58
2024/01/30 00:46:05;;;;;;;47.20;20.10;;;;;;;-0.76;77.73;102146.20;105513;1253;69189;-58
2024/01/30 00:48:34;;;;;;;36.30;18.20;;;;;;;-0.79;77.91;102142.14;105533;1254;72120;-58
2024/01/30 00:51:02;;;;;;;36.00;18.10;;;;;;;-0.77;78.37;102143.27;105504;1256;81455;-58
2024/01/30 00:53:30;;;;;;;48.10;19.70;;;;;;;-0.74;78.20;102142.69;105464;1254;71724;-58
2024/01/30 00:55:58;;;;;;;50.90;20.00;;;;;;;-0.73;78.33;102145.98;105536;1254;69099;-58
2024/01/30 00:58:27;;;;;;;50.60;18.50;;;;;;;-0.73;78.35;102146.14;105490;1257;69174;-58
2024/01/30 01:00:55;;;;;;;41.70;17.90;;;;;;;-0.77;78.33;102140.34;105576;1256;72310;-58
2024/01/30 01:03:23;;;;;;;44.60;18.60;;;;;;;-0.83;78.18;102139.06;105494;1253;82735;-58
2024/01/30 01:05:52;;;;;;;42.20;16.80;;;;;;;-0.88;78.32;102137.52;105544;1254;72170;-58
2024/01/30 01:08:20;;;;;;;42.00;19.20;;;;;;;-0.84;78.79;102145.73;105493;1253;69165;-58
2024/01/30 01:10:48;;;;;;;39.90;17.10;;;;;;;-0.89;78.56;102144.88;105529;1256;69190;-58
2024/01/30 01:13:16;;;;;;;43.10;18.40;;;;;;;-0.88;78.64;102145.08;105557;1254;71846;-58
2024/01/30 01:15:45;;;;;;;39.20;16.90;;;;;;;-0.92;78.61;102142.52;105497;1256;82547;-58
2024/01/30 01:18:13;;;;;;;41.30;17.70;;;;;;;-0.94;78.81;102148.80;105497;1256;71476;-58
2024/01/30 01:20:41;;;;;;;38.50;18.30;;;;;;;-0.96;78.78;102143.39;105558;1254;69272;-58
2024/01/30 01:23:10;;;;;;;43.50;17.20;;;;;;;-1.01;78.64;102147.17;105503;1256;69525;-58
2024/01/30 01:25:38;;;;;;;61.70;21.50;;;;;;;-1.07;78.54;102146.04;105498;1254;72642;-58
2024/01/30 01:28:06;;;;;;;41.50;17.50;;;;;;;-1.05;79.14;102151.98;105470;1256;82825;-58
2024/01/30 01:30:35;;;;;;;51.10;18.60;;;;;;;-1.03;79.32;102149.11;105466;1256;70233;-58
2024/01/30 01:33:03;;;;;;;45.80;18.80;;;;;;;-1.02;79.34;102147.27;105546;1254;69268;-58
2024/01/30 01:35:32;;;;;;;40.10;17.70;;;;;;;-1.08;78.99;102144.13;105550;1256;69235;-58
2024/01/30 01:38:00;;;;;;;48.30;20.30;;;;;;;-1.13;79.05;102141.23;105510;1254;72500;-58
2024/01/30 01:40:29;;;;;;;70.20;27.20;;;;;;;-1.13;79.37;102140.20;105560;1256;81953;-58
2024/01/30 01:42:57;;;;;;;68.10;25.50;;;;;;;-1.09;79.94;102146.34;105546;1254;72688;-58
2024/01/30 01:45:25;;;;;;;65.30;24.40;;;;;;;-1.09;79.56;102147.20;105567;1254;69144;-58
2024/01/30 01:47:54;;;;;;;40.80;18.40;;;;;;;-1.14;79.66;102148.05;105623;1253;69118;-58
2024/01/30 01:50:23;;;;;;;60.00;24.50;;;;;;;-1.12;79.94;102154.47;105453;1254;71971;-60
2024/01/30 01:52:51;;;;;;;54.60;22.60;;;;;;;-1.18;79.90;102152.70;105594;1254;81368;-58
2024/01/30 01:55:26;;;;;;;58.10;22.70;;;;;;;-1.22;79.66;102146.88;105487;1256;70384;-58
2024/01/30 01:57:55;;;;;;;60.90;23.10;;;;;;;-1.26;79.73;102146.34;105485;1254;69100;-58
2024/01/30 02:00:23;;;;;;;51.50;22.10;;;;;;;-1.30;79.63;102149.77;105566;1256;69201;-58
2024/01/30 02:02:51;;;;;;;49.60;20.50;;;;;;;-1.36;79.65;102149.08;105598;1254;73638;-58
2024/01/30 02:05:21;;;;;;;52.70;20.80;;;;;;;-1.39;79.82;102148.27;105483;1254;80566;-58
2024/01/30 02:07:50;;;;;;;37.90;17.60;;;;;;;-1.45;79.62;102144.25;105547;1254;71991;-58
2024/01/30 02:10:18;;;;;;;25.50;12.50;;;;;;;-1.50;79.81;102146.46;105427;1252;69126;-58
2024/01/30 02:12:46;;;;;;;23.80;11.40;;;;;;;-1.50;80.25;102145.91;105454;1257;69150;-58
2024/01/30 02:15:15;;;;;;;23.00;11.40;;;;;;;-1.48;80.49;102146.15;105497;1253;73154;-58
2024/01/30 02:17:43;;;;;;;25.00;12.10;;;;;;;-1.47;80.76;102141.94;105395;1257;81951;-58
2024/01/30 02:20:12;;;;;;;28.80;12.40;;;;;;;-1.46;80.78;102134.06;105385;1253;72403;-58
2024/01/30 02:22:41;;;;;;;23.60;11.60;;;;;;;-1.49;80.85;102138.42;105467;1254;69299;-58
2024/01/30 02:25:09;;;;;;;25.30;12.50;;;;;;;-1.55;80.48;102139.55;105491;1257;69273;-58
2024/01/30 02:27:38;;;;;;;24.10;11.60;;;;;;;-1.58;80.65;102143.23;105495;1257;71883;-58
2024/01/30 02:30:07;;;;;;;26.50;12.80;;;;;;;-1.61;80.66;102135.19;105390;1254;81330;-58
2024/01/30 02:32:35;;;;;;;30.30;15.00;;;;;;;-1.60;80.85;102122.21;105498;1254;72441;-58
2024/01/30 02:35:03;;;;;;;24.30;13.60;;;;;;;-1.55;81.29;102122.40;105411;1258;69187;-58
2024/01/30 02:37:32;;;;;;;23.20;12.40;;;;;;;-1.55;80.98;102119.65;105432;1256;69222;-58
2024/01/30 02:40:00;;;;;;;32.90;15.10;;;;;;;-1.62;80.84;102117.86;105533;1257;73424;-59
2024/01/30 02:42:28;;;;;;;34.70;16.50;;;;;;;-1.61;81.23;102120.78;105492;1257;83524;-61
2024/01/30 02:44:57;;;;;;;28.40;14.90;;;;;;;-1.55;81.77;102122.38;105484;1254;72357;-61
2024/01/30 02:47:25;;;;;;;29.00;14.80;;;;;;;-1.54;81.53;102137.52;105440;1255;69163;-60
2024/01/30 02:49:53;;;;;;;34.20;15.10;;;;;;;-1.58;81.26;102138.73;105451;1253;69116;-60
2024/01/30 02:52:23;;;;;;;34.90;15.50;;;;;;;-1.63;81.22;102133.20;105513;1253;72724;-60
2024/01/30 02:54:52;;;;;;;29.20;15.40;;;;;;;-1.64;81.49;102127.17;105506;1254;81786;-60
2024/01/30 02:57:20;;;;;;;33.50;16.00;;;;;;;-1.68;81.08;102122.06;105425;1253;72958;-60
2024/01/30 02:59:48;;;;;;;34.30;16.50;;;;;;;-1.69;81.71;102122.68;105471;1254;69044;-60
2024/01/30 03:02:17;;;;;;;32.00;15.30;;;;;;;-1.68;81.70;102126.19;105424;1256;69142;-60
2024/01/30 03:04:45;;;;;;;44.10;20.00;;;;;;;-1.75;81.46;102126.74;105447;1253;74753;-60
2024/01/30 03:07:14;;;;;;;28.40;14.20;;;;;;;-1.75;81.84;102132.05;105519;1253;81594;-60
2024/01/30 03:09:44;;;;;;;31.00;14.60;;;;;;;-1.75;82.00;102128.79;105492;1253;71741;-60
2024/01/30 03:12:12;;;;;;;30.10;14.40;;;;;;;-1.75;82.20;102130.14;105432;1257;69112;-60
2024/01/30 03:14:40;;;;;;;27.50;14.00;;;;;;;-1.79;81.98;102127.61;105486;1256;69774;-60
2024/01/30 03:17:08;;;;;;;31.40;15.70;;;;;;;-1.85;81.69;102127.02;105489;1253;74094;-60
2024/01/30 03:19:36;;;;;;;28.50;14.70;;;;;;;-1.90;81.69;102132.30;105482;1257;81543;-60
2024/01/30 03:22:05;;;;;;;34.20;16.60;;;;;;;-1.91;82.00;102129.83;105537;1257;72028;-60
2024/01/30 03:24:33;;;;;;;35.30;16.10;;;;;;;-1.87;82.36;102126.41;105486;1257;69120;-60
2024/01/30 03:27:01;;;;;;;30.70;16.00;;;;;;;-1.83;82.49;102121.10;105466;1253;69168;-60
2024/01/30 03:29:30;;;;;;;31.90;14.80;;;;;;;-1.83;82.47;102121.43;105472;1253;73722;-60
2024/01/30 03:31:58;;;;;;;29.10;14.90;;;;;;;-1.87;82.24;102125.39;105442;1257;81476;-60
2024/01/30 03:34:26;;;;;;;31.00;15.00;;;;;;;-1.90;82.27;102113.08;105406;1257;71603;-60
2024/01/30 03:36:55;;;;;;;42.40;17.90;;;;;;;-1.91;82.30;102104.14;105408;1253;69189;-60
2024/01/30 03:39:23;;;;;;;40.50;17.00;;;;;;;-1.94;82.37;102099.73;105455;1257;69127;-61
2024/01/30 03:41:51;;;;;;;35.40;16.70;;;;;;;-1.91;83.13;102096.77;105431;1253;73364;-60
2024/01/30 03:44:20;;;;;;;33.00;17.20;;;;;;;-1.85;83.33;102100.45;105400;1256;81495;-60
2024/01/30 03:46:48;;;;;;;36.90;17.50;;;;;;;-1.87;83.01;102094.02;105441;1253;71569;-60
2024/01/30 03:49:16;;;;;;;35.40;18.20;;;;;;;-1.92;82.63;102094.67;105495;1257;69089;-60
2024/01/30 03:51:44;;;;;;;37.50;17.60;;;;;;;-1.95;82.72;102097.98;105443;1257;69178;-60
2024/01/30 03:54:13;;;;;;;32.30;15.10;;;;;;;-1.99;82.66;102095.58;105434;1253;73465;-60
2024/01/30 03:56:41;;;;;;;32.70;16.20;;;;;;;-2.01;82.78;102097.58;105463;1257;82001;-60
2024/01/30 03:59:09;;;;;;;34.00;16.80;;;;;;;-2.00;82.97;102101.71;105471;1253;71980;-60
2024/01/30 04:01:38;;;;;;;35.60;17.00;;;;;;;-2.03;82.75;102103.30;105418;1254;69209;-60
2024/01/30 04:04:06;;;;;;;35.70;17.10;;;;;;;-2.06;82.76;102108.84;105447;1258;69184;-60
2024/01/30 04:06:34;;;;;;;32.70;17.00;;;;;;;-2.08;83.05;102114.24;105447;1253;72906;-60
2024/01/30 04:09:03;;;;;;;37.00;17.70;;;;;;;-2.02;83.52;102110.02;105485;1257;81498;-60
2024/01/30 04:11:31;;;;;;;30.80;16.60;;;;;;;-1.97;83.63;102108.85;105509;1253;72432;-60
2024/01/30 04:13:59;;;;;;;31.90;16.10;;;;;;;-1.99;83.40;102106.03;105424;1253;69064;-60
2024/01/30 04:16:28;;;;;;;37.90;18.40;;;;;;;-2.02;83.27;102113.11;105441;1255;69213;-60
2024/01/30 04:18:56;;;;;;;31.70;16.30;;;;;;;-2.05;83.35;102112.30;105457;1257;71986;-60
2024/01/30 04:21:25;;;;;;;37.50;18.40;;;;;;;-2.05;83.51;102115.92;105511;1253;83481;-60
2024/01/30 04:23:53;;;;;;;31.40;16.50;;;;;;;-2.00;83.82;102121.05;105509;1253;71679;-60
2024/01/30 04:26:21;;;;;;;33.40;18.40;;;;;;;-1.97;83.82;102112.44;105518;1253;71080;-60
2024/01/30 04:28:50;;;;;;;36.20;18.10;;;;;;;-2.00;83.61;102113.71;105472;1256;69211;-60
2024/01/30 04:31:18;;;;;;;32.40;16.80;;;;;;;-1.97;84.04;102112.64;105422;1257;72780;-60
2024/01/30 04:33:46;;;;;;;38.40;18.60;;;;;;;-1.94;84.01;102109.30;105421;1256;81949;-60
2024/01/30 04:36:15;;;;;;;33.20;16.30;;;;;;;-1.93;84.00;102114.19;105513;1253;71716;-60
2024/01/30 04:38:43;;;;;;;34.50;17.30;;;;;;;-1.95;83.67;102120.44;105398;1253;69165;-60
2024/01/30 04:41:11;;;;;;;39.30;19.00;;;;;;;-1.99;83.68;102122.30;105450;1253;69181;-60
2024/01/30 04:43:39;;;;;;;39.60;19.20;;;;;;;-1.96;84.12;102123.63;105455;1253;73119;-60
2024/01/30 04:46:07;;;;;;;40.80;18.80;;;;;;;-1.95;84.29;102121.13;105408;1253;82978;-60
2024/01/30 04:48:35;;;;;;;37.50;18.30;;;;;;;-1.95;84.09;102119.05;105505;1256;71735;-60
2024/01/30 04:51:04;;;;;;;39.30;20.20;;;;;;;-1.95;84.41;102119.91;105431;1253;69198;-60
2024/01/30 04:53:33;;;;;;;35.30;18.10;;;;;;;-1.92;84.68;102117.98;105414;1257;69187;-60
2024/01/30 04:56:01;;;;;;;43.40;19.80;;;;;;;-1.88;84.85;102112.50;105475;1252;73170;-58
2024/01/30 04:58:29;;;;;;;37.40;19.40;;;;;;;-1.89;84.26;102119.13;105441;1257;81465;-57
2024/01/30 05:00:58;;;;;;;40.90;18.50;;;;;;;-1.94;84.09;102117.05;105641;1253;71927;-58
2024/01/30 05:03:26;;;;;;;36.00;18.30;;;;;;;-2.02;83.71;102116.38;105726;1257;69206;-58
2024/01/30 05:05:55;;;;;;;36.40;18.10;;;;;;;-2.07;83.74;102117.20;105596;1256;69186;-58
2024/01/30 05:08:23;;;;;;;36.20;17.90;;;;;;;-2.07;84.10;102116.52;105494;1257;73771;-58
2024/01/30 05:10:51;;;;;;;40.80;19.70;;;;;;;-2.07;84.20;102119.75;105622;1256;81494;-57
2024/01/30 05:13:19;;;;;;;38.70;21.00;;;;;;;-2.09;84.08;102122.58;105477;1253;72173;-57
2024/01/30 05:15:48;;;;;;;39.50;18.90;;;;;;;-2.10;84.25;102120.69;105557;1259;69093;-58
2024/01/30 05:18:16;;;;;;;35.70;18.90;;;;;;;-2.11;84.21;102127.81;105561;1257;69058;-59
2024/01/30 05:20:45;;;;;;;35.00;18.70;;;;;;;-2.12;84.30;102123.83;105476;1258;71426;-56
2024/01/30 05:23:13;;;;;;;38.70;19.00;;;;;;;-2.17;84.03;102123.30;105747;1257;82113;-58
2024/01/30 05:25:41;;;;;;;36.10;19.00;;;;;;;-2.20;83.99;102122.65;105629;1252;74816;-57
2024/01/30 05:28:10;;;;;;;36.20;17.80;;;;;;;-2.22;84.18;102122.04;105594;1253;69129;-59
2024/01/30 05:30:38;;;;;;;37.60;19.40;;;;;;;-2.18;84.75;102122.02;105506;1256;69139;-58
2024/01/30 05:33:06;;;;;;;34.70;18.20;;;;;;;-2.20;84.75;102117.66;105622;1253;72814;-59
2024/01/30 05:35:35;;;;;;;32.90;17.70;;;;;;;-2.17;85.26;102124.79;105680;1257;81951;-58
2024/01/30 05:38:04;;;;;;;36.80;17.50;;;;;;;-2.20;84.70;102125.04;105627;1257;70284;-58
2024/01/30 05:40:32;;;;;;;35.00;17.30;;;;;;;-2.28;84.27;102123.85;105703;1253;69024;-58
2024/01/30 05:43:02;;;;;;;36.90;18.20;;;;;;;-2.33;84.25;102122.23;105577;1258;69233;-59
2024/01/30 05:45:31;;;;;;;35.50;17.00;;;;;;;-2.38;84.21;102123.40;105732;1253;72895;-59
2024/01/30 05:47:59;;;;;;;35.40;17.40;;;;;;;-2.42;84.25;102127.17;105497;1253;83444;-59
2024/01/30 05:50:27;;;;;;;35.30;17.40;;;;;;;-2.45;84.15;102125.80;105527;1253;72423;-58
2024/01/30 05:52:56;;;;;;;34.90;16.70;;;;;;;-2.49;84.31;102122.10;105557;1253;69132;-59
2024/01/30 05:55:24;;;;;;;37.00;16.70;;;;;;;-2.47;84.93;102125.27;105466;1257;69050;-59
2024/01/30 05:57:52;;;;;;;39.40;17.40;;;;;;;-2.46;84.81;102130.77;105559;1253;72767;-59
2024/01/30 06:00:21;;;;;;;34.20;17.10;;;;;;;-2.51;84.57;102130.73;105434;1257;82641;-58
2024/01/30 06:02:49;;;;;;;35.40;17.00;;;;;;;-2.52;84.69;102128.46;105542;1258;71822;-56
2024/01/30 06:05:18;;;;;;;31.50;16.50;;;;;;;-2.54;84.77;102120.85;105436;1253;69135;-56
2024/01/30 06:07:46;;;;;;;35.20;17.20;;;;;;;-2.53;84.95;102127.73;105446;1258;69167;-58
2024/01/30 06:10:14;;;;;;;35.30;16.10;;;;;;;-2.55;84.81;102128.00;105668;1253;74152;-58
2024/01/30 06:12:43;;;;;;;35.10;17.70;;;;;;;-2.58;84.65;102130.23;105476;1256;82000;-57
2024/01/30 06:15:12;;;;;;;40.30;19.00;;;;;;;-2.60;84.86;102126.91;105524;1253;72822;-52
2024/01/30 06:17:41;;;;;;;77.10;34.60;;;;;;;-2.59;84.99;102123.83;105576;1258;69126;-51
2024/01/30 06:20:10;;;;;;;40.50;20.40;;;;;;;-2.55;85.52;102121.83;105699;1257;69223;-53
2024/01/30 06:22:38;;;;;;;41.90;21.60;;;;;;;-2.56;85.12;102121.08;105530;1256;71640;-54
2024/01/30 06:25:07;;;;;;;46.80;23.70;;;;;;;-2.54;85.52;102116.55;105468;1256;81457;-52
2024/01/30 06:27:35;;;;;;;36.60;19.80;;;;;;;-2.46;86.20;102119.63;105685;1253;71747;-53
2024/01/30 06:30:05;;;;;;;39.90;19.30;;;;;;;-2.40;86.43;102119.71;105420;1253;69166;-55
2024/01/30 06:32:34;;;;;;;37.80;18.10;;;;;;;-2.32;86.70;102120.92;105463;1258;69181;-55
2024/01/30 06:35:03;;;;;;;47.40;20.80;;;;;;;-2.23;87.00;102113.77;105474;1253;73201;-54
2024/01/30 06:37:32;;;;;;;43.40;19.30;;;;;;;-2.17;86.97;102118.83;105440;1257;81346;-55
2024/01/30 06:40:00;;;;;;;41.80;19.20;;;;;;;-2.12;86.92;102118.70;105501;1253;72035;-55
2024/01/30 06:42:29;;;;;;;33.90;15.90;;;;;;;-2.08;86.84;102122.80;105507;1253;69174;-53
2024/01/30 06:44:57;;;;;;;31.90;17.00;;;;;;;-2.02;87.13;102124.77;105515;1256;69147;-53
2024/01/30 06:47:25;;;;;;;36.20;18.50;;;;;;;-1.93;87.31;102128.59;105537;1258;74218;-53
2024/01/30 06:49:54;;;;;;;42.70;19.60;;;;;;;-1.87;87.16;102132.62;105507;1258;81571;-54
2024/01/30 06:52:22;;;;;;;44.90;20.60;;;;;;;-1.90;86.35;102139.16;105478;1253;71545;-52
2024/01/30 06:54:51;;;;;;;44.70;20.70;;;;;;;-1.95;86.12;102135.66;105497;1253;69091;-54
2024/01/30 06:57:19;;;;;;;40.90;20.00;;;;;;;-1.97;86.11;102137.27;105543;1257;69193;-53
2024/01/30 06:59:47;;;;;;;45.50;21.40;;;;;;;-1.98;86.14;102131.09;105522;1253;72979;-54
2024/01/30 07:02:16;;;;;;;45.90;21.10;;;;;;;-1.97;86.17;102136.10;105504;1257;81368;-53
2024/01/30 07:04:44;;;;;;;40.50;20.90;;;;;;;-1.96;86.37;102143.19;105425;1258;72991;-53
2024/01/30 07:07:15;;;;;;;41.40;21.20;;;;;;;-1.93;86.48;102143.62;105400;1258;69088;-54
2024/01/30 07:09:43;;;;;;;41.90;21.10;;;;;;;-1.90;86.64;102143.77;105523;1257;69188;-51
2024/01/30 07:12:12;;;;;;;45.10;21.00;;;;;;;-1.88;86.50;102144.20;105659;1258;71781;-52
2024/01/30 07:14:41;;;;;;;50.90;23.40;;;;;;;-1.88;86.59;102142.48;105569;1258;81533;-55
2024/01/30 07:17:09;;;;;;;57.00;26.60;;;;;;;-1.86;86.52;102143.94;105539;1257;72525;-51
2024/01/30 07:19:37;;;;;;;64.00;30.10;;;;;;;-1.84;86.62;102148.84;105452;1258;69291;-54
2024/01/30 07:22:05;;;;;;;79.10;35.10;;;;;;;-1.79;86.85;102146.64;105394;1258;69231;-54
2024/01/30 07:24:34;;;;;;;82.10;35.70;;;;;;;-1.74;87.26;102144.61;105537;1253;73102;-55
2024/01/30 07:27:03;;;;;;;63.50;30.60;;;;;;;-1.67;87.29;102144.36;105484;1253;82129;-55
2024/01/30 07:29:31;;;;;;;59.50;29.90;;;;;;;-1.64;87.32;102145.19;105500;1253;70513;-54
2024/01/30 07:31:59;;;;;;;56.60;29.30;;;;;;;-1.59;87.41;102143.67;105415;1258;69900;-54
2024/01/30 07:34:27;;;;;;;54.80;27.80;;;;;;;-1.52;87.49;102142.04;105446;1257;69198;-54
2024/01/30 07:36:56;;;;;;;54.70;26.90;;;;;;;-1.46;87.64;102140.59;105545;1257;72995;-55
2024/01/30 07:39:24;;;;;;;70.50;33.90;;;;;;;-1.41;87.55;102140.27;105504;1257;83589;-54
2024/01/30 07:41:52;;;;;;;81.80;35.70;;;;;;;-1.35;87.75;102141.88;105416;1253;71798;-55
2024/01/30 07:44:22;;;;;;;55.70;28.30;;;;;;;-1.25;88.14;102137.46;105411;1255;69159;-55
2024/01/30 07:46:50;;;;;;;51.70;26.80;;;;;;;-1.13;88.50;102134.85;105564;1257;69146;-55
2024/01/30 07:49:18;;;;;;;40.20;23.20;;;;;;;-1.02;88.46;102131.83;105477;1253;72952;-55
2024/01/30 07:51:46;;;;;;;39.30;22.80;;;;;;;-0.94;88.63;102132.85;105458;1258;81370;-55
2024/01/30 07:54:15;;;;;;;45.70;24.90;;;;;;;-0.82;88.88;102132.59;105460;1253;72981;-53
2024/01/30 07:56:43;;;;;;;161.30;82.00;;;;;;;-0.71;88.97;102125.96;105467;1256;69175;-55
2024/01/30 07:59:12;;;;;;;86.30;43.60;;;;;;;-0.59;88.96;102125.70;105438;1253;69215;-54
2024/01/30 08:01:40;;;;;;;91.00;40.30;;;;;;;-0.50;88.91;102127.58;105392;1253;72821;-56
2024/01/30 08:04:08;;;;;;;95.60;38.10;;;;;;;-0.42;88.96;102124.78;105457;1258;81385;-56
2024/01/30 08:06:36;;;;;;;87.60;34.60;;;;;;;-0.32;89.09;102128.56;105422;1253;71812;-56
2024/01/30 08:09:09;;;;;;;60.60;28.20;;;;;;;-0.21;89.08;102126.70;105472;1253;69101;-54
2024/01/30 08:11:37;;;;;;;70.50;35.60;;;;;;;-0.13;89.09;102127.85;105475;1253;69128;-55
2024/01/30 08:14:05;;;;;;;112.90;49.70;;;;;;;-0.07;89.07;102129.77;105476;1253;74318;-56
2024/01/30 08:16:33;;;;;;;105.90;47.30;;;;;;;0.00;88.97;102125.72;105514;1253;81512;-55
2024/01/30 08:19:02;;;;;;;58.60;32.90;;;;;;;0.04;88.90;102122.94;105415;1257;72503;-55
2024/01/30 08:21:36;;;;;;;64.40;31.50;;;;;;;0.11;88.95;102126.08;105517;1260;69186;-56
2024/01/30 08:24:07;;;;;;;105.50;43.00;;;;;;;0.17;88.95;102120.78;105592;1253;69206;-55
2024/01/30 08:26:35;;;;;;;134.80;60.10;;;;;;;0.23;88.82;102118.77;105510;1253;72902;-56
2024/01/30 08:29:04;;;;;;;155.10;74.60;;;;;;;0.33;88.71;102118.90;105495;1253;82139;-56
2024/01/30 08:31:32;;;;;;;185.70;91.10;;;;;;;0.43;88.86;102111.48;105626;1253;72213;-57
2024/01/30 08:34:01;;;;;;;233.10;115.80;;;;;;;0.56;89.01;102110.00;105417;1254;69094;-56
2024/01/30 08:36:29;;;;;;;170.70;81.00;;;;;;;0.68;89.08;102107.96;105458;1253;69123;-56
2024/01/30 08:38:58;;;;;;;97.30;47.10;;;;;;;0.82;89.17;102113.38;105518;1253;74854;-56
2024/01/30 08:41:31;;;;;;;86.50;39.90;;;;;;;0.94;89.15;102109.45;105482;1257;83364;-56
2024/01/30 08:44:00;;;;;;;62.20;30.90;;;;;;;1.06;89.18;102110.14;105452;1258;72271;-56
2024/01/30 08:46:28;;;;;;;44.40;22.50;;;;;;;1.18;89.13;102106.89;105512;1254;69067;-56
2024/01/30 08:48:56;;;;;;;38.20;19.40;;;;;;;1.31;89.08;102103.64;105502;1253;69181;-56
2024/01/30 08:51:25;;;;;;;32.30;17.90;;;;;;;1.45;89.04;102101.61;105542;1254;72821;-56
2024/01/30 08:53:54;;;;;;;34.20;18.60;;;;;;;1.61;89.01;102104.98;105565;1253;81996;-54
2024/01/30 08:56:22;;;;;;;30.40;15.20;;;;;;;1.78;88.89;102103.20;105535;1258;71888;-59
2024/01/30 08:58:50;;;;;;;27.20;15.30;;;;;;;1.97;88.72;102102.29;105480;1253;69215;-57
2024/01/30 09:01:18;;;;;;;25.80;13.90;;;;;;;2.18;88.55;102101.10;105473;1256;69508;-58
2024/01/30 09:03:47;;;;;;;31.00;17.20;;;;;;;2.37;88.38;102100.71;105496;1253;72783;-55
2024/01/30 09:06:15;;;;;;;30.60;18.90;;;;;;;2.58;88.19;102096.35;105466;1257;83594;-55
2024/01/30 09:08:43;;;;;;;37.70;21.00;;;;;;;2.76;87.90;102096.75;105399;1253;70571;-56
2024/01/30 09:11:13;;;;;;;31.70;19.10;;;;;;;2.94;87.54;102098.53;105480;1258;69139;-55
2024/01/30 09:13:41;;;;;;;33.80;18.70;;;;;;;3.17;87.58;102095.20;105427;1253;69117;-55
2024/01/30 09:16:10;;;;;;;32.50;17.70;;;;;;;3.41;87.31;102093.79;105480;1253;74800;-55
2024/01/30 09:18:38;;;;;;;23.40;13.60;;;;;;;3.62;87.04;102094.20;105508;1253;83370;-55
2024/01/30 09:21:07;;;;;;;23.90;12.80;;;;;;;3.86;86.78;102086.00;105533;1259;72076;-56
2024/01/30 09:23:35;;;;;;;21.70;11.80;;;;;;;4.08;86.32;102084.29;105450;1253;69269;-55
2024/01/30 09:26:03;;;;;;;26.40;14.70;;;;;;;4.30;85.74;102079.79;105435;1257;69190;-56
2024/01/30 09:28:32;;;;;;;24.00;13.30;;;;;;;4.50;85.36;102076.99;105478;1253;72956;-55
2024/01/30 09:31:00;;;;;;;25.50;12.40;;;;;;;4.70;84.98;102077.98;105469;1257;81777;-54
2024/01/30 09:33:30;;;;;;;18.30;11.50;;;;;;;4.91;84.65;102075.31;105522;1257;71657;-57
2024/01/30 09:35:59;;;;;;;23.70;12.00;;;;;;;5.11;84.15;102078.86;105392;1259;69153;-57
2024/01/30 09:38:28;;;;;;;20.70;11.50;;;;;;;5.32;83.67;102077.19;105537;1259;69184;-58
2024/01/30 09:41:03;;;;;;;20.10;10.80;;;;;;;5.50;83.16;102073.23;105479;1253;72841;-57
2024/01/30 09:43:34;;;;;;;19.10;10.10;;;;;;;5.70;82.75;102070.66;105558;1256;82907;-57
2024/01/30 09:46:03;;;;;;;17.60;10.80;;;;;;;5.90;82.38;102066.55;105334;1253;250858;-57
2024/01/30 09:48:32;;;;;;;21.00;12.40;;;;;;;6.10;82.05;102067.77;105492;1255;69217;-57
2024/01/30 09:51:02;;;;;;;22.80;12.40;;;;;;;6.27;81.25;102067.04;105500;1258;69151;-57
2024/01/30 09:53:33;;;;;;;20.10;11.40;;;;;;;6.45;81.04;102065.41;105526;1253;74167;-59
2024/01/30 09:56:02;;;;;;;20.20;11.70;;;;;;;6.65;80.79;102062.75;105514;1253;81222;-58
2024/01/30 09:58:30;;;;;;;21.50;11.00;;;;;;;6.86;80.05;102059.21;105530;1253;70174;-57
2024/01/30 10:00:59;;;;;;;19.80;11.80;;;;;;;7.01;79.44;102055.80;105481;1258;69159;-57
2024/01/30 10:03:29;;;;;;;21.60;12.00;;;;;;;7.18;79.08;102055.36;105267;1259;69213;-59
2024/01/30 10:05:58;;;;;;;18.30;11.50;;;;;;;7.39;78.66;102056.46;105279;1253;75168;-57
2024/01/30 10:08:26;;;;;;;17.10;10.90;;;;;;;7.58;78.15;102049.90;105566;1257;81491;-58
2024/01/30 10:10:55;;;;;;;20.10;12.30;;;;;;;7.75;77.41;102049.05;105632;1257;71948;-58
2024/01/30 10:13:23;;;;;;;22.70;12.80;;;;;;;7.96;77.40;102043.85;105491;1266;69315;-58
2024/01/30 10:15:54;;;;;;;20.80;13.90;;;;;;;8.21;77.02;102044.34;105552;1257;69202;-57
2024/01/30 10:18:23;;;;;;;22.50;13.60;;;;;;;8.43;76.61;102043.14;105523;1257;74142;-59
2024/01/30 10:20:52;;;;;;;23.90;13.90;;;;;;;8.63;75.95;102039.61;105505;1257;81882;-58
2024/01/30 10:23:20;;;;;;;23.40;13.40;;;;;;;8.82;75.68;102037.46;105599;1257;73073;-57
2024/01/30 10:25:51;;;;;;;22.00;13.30;;;;;;;9.07;75.59;102040.14;105537;1266;69129;-58
2024/01/30 10:28:21;;;;;;;22.50;12.70;;;;;;;9.30;75.13;102037.59;105557;1254;69074;-58
2024/01/30 10:30:59;;;;;;;22.00;13.70;;;;;;;9.47;74.29;102032.77;105511;1258;73729;-58
2024/01/30 10:33:33;;;;;;;20.90;13.70;;;;;;;9.59;73.48;102030.27;105229;1258;81774;-58
2024/01/30 10:36:04;;;;;;;18.90;11.90;;;;;;;9.64;73.00;102025.85;105319;1256;71694;-56
2024/01/30 10:38:33;;;;;;;22.60;12.80;;;;;;;9.76;72.44;102019.48;105235;1258;69125;-59
2024/01/30 10:41:01;;;;;;;17.40;12.00;;;;;;;9.93;72.36;102016.73;105294;1258;69753;-59
2024/01/30 10:43:35;;;;;;;17.00;10.50;;;;;;;10.07;71.58;102011.89;105253;1258;73072;-59
2024/01/30 10:46:20;;;;;;;18.30;11.10;;;;;;;10.15;70.83;102009.90;105242;1260;81546;-56
2024/01/30 10:48:58;;;;;;;19.80;11.70;;;;;;;10.21;70.29;102004.08;105232;1254;71718;-56
2024/01/30 10:51:28;;;;;;;19.20;11.60;;;;;;;10.36;70.14;102002.38;105249;1258;69219;-54
2024/01/30 10:53:56;;;;;;;17.70;11.30;;;;;;;10.48;69.68;102001.03;105289;1257;69140;-56
2024/01/30 10:56:26;;;;;;;21.20;12.50;;;;;;;10.59;69.37;101995.84;105312;1254;74015;-56
2024/01/30 10:58:57;;;;;;;19.50;12.90;;;;;;;10.67;69.05;101993.64;105231;1259;81678;-56
2024/01/30 11:01:27;;;;;;;19.40;12.10;;;;;;;10.70;68.37;101994.12;105264;1258;72753;-56
2024/01/30 11:03:56;;;;;;;21.10;12.20;;;;;;;10.71;67.99;101988.87;105270;1258;69143;-56
2024/01/30 11:06:26;;;;;;;;;;;;;;;10.82;67.70;101988.90;105276;1258;69210;-56
2024/01/30 11:09:08;;;;;;;21.30;12.70;;;;;;;10.91;67.07;101986.88;105299;1258;73458;-56
2024/01/30 11:11:50;;;;;;;18.30;11.90;;;;;;;10.97;66.92;101982.59;105268;1258;82806;-56